Terminal Aerodrome Forecast
Issued by NWS

Home | Current Version | Previous Version | Graphics & Text | Print | Product List | Glossary On
Versions: 1 2 3 4 5 6 7 8 9 10 11 12 13 14 15 16 17 18
000
FTUS43 KIWX 220454 AAB
TAFSBN
TAF AMD
KSBN 220454Z 2205/2224 00000KT 1/4SM FG VV002
      TEMPO 2205/2209 1SM BR BKN008
     FM221300 07003KT 1SM BR OVC004
     FM221600 06005KT 2SM BR BKN008
     FM221800 05008KT 6SM BR BKN020=

USA.gov is the U.S. government's official web portal to all federal, state and local government web resources and services.